sensor_id;sensor_type;location;lat;lon;timestamp;pressure;altitude;pressure_sealevel;temperature;humidity
68456;BME280;55437;55.046;38.838;2023-02-15T00:01:40;100014.72;;;0.75;66.10
68456;BME280;55437;55.046;38.838;2023-02-15T00:04:06;100020.66;;;0.77;66.13
68456;BME280;55437;55.046;38.838;2023-02-15T00:06:34;100030.03;;;0.87;65.93
68456;BME280;55437;55.046;38.838;2023-02-15T00:09:01;100026.75;;;0.94;65.58
68456;BME280;55437;55.046;38.838;2023-02-15T00:11:28;100030.88;;;0.88;65.99
68456;BME280;55437;55.046;38.838;2023-02-15T00:16:42;100038.53;;;0.95;65.48
68456;BME280;55437;55.046;38.838;2023-02-15T00:19:10;100042.63;;;0.86;65.74
68456;BME280;55437;55.046;38.838;2023-02-15T00:21:37;100041.66;;;0.71;65.70
68456;BME280;55437;55.046;38.838;2023-02-15T00:24:05;100035.75;;;0.71;65.97
68456;BME280;55437;55.046;38.838;2023-02-15T00:26:31;100044.28;;;0.81;65.64
68456;BME280;55437;55.046;38.838;2023-02-15T00:28:58;100052.75;;;0.84;65.38
68456;BME280;55437;55.046;38.838;2023-02-15T00:31:29;100048.41;;;0.71;65.42
68456;BME280;55437;55.046;38.838;2023-02-15T00:34:01;100042.28;;;0.54;65.90
68456;BME280;55437;55.046;38.838;2023-02-15T00:36:27;100038.03;;;0.50;66.03
68456;BME280;55437;55.046;38.838;2023-02-15T00:38:52;100054.81;;;0.43;66.20
68456;BME280;55437;55.046;38.838;2023-02-15T00:41:18;100049.69;;;0.40;66.12
68456;BME280;55437;55.046;38.838;2023-02-15T00:43:44;100054.13;;;0.56;65.66
68456;BME280;55437;55.046;38.838;2023-02-15T00:46:10;100054.06;;;0.53;65.72
68456;BME280;55437;55.046;38.838;2023-02-15T00:48:38;100059.78;;;0.35;65.82
68456;BME280;55437;55.046;38.838;2023-02-15T00:51:04;100058.78;;;0.26;66.26
68456;BME280;55437;55.046;38.838;2023-02-15T00:53:31;100057.13;;;0.28;66.29
68456;BME280;55437;55.046;38.838;2023-02-15T00:55:57;100062.28;;;0.34;66.13
68456;BME280;55437;55.046;38.838;2023-02-15T00:58:24;100058.84;;;0.30;66.04
68456;BME280;55437;55.046;38.838;2023-02-15T01:00:50;100061.47;;;0.38;65.99
68456;BME280;55437;55.046;38.838;2023-02-15T01:03:17;100067.34;;;0.37;65.63
68456;BME280;55437;55.046;38.838;2023-02-15T01:05:44;100066.47;;;0.33;65.73
68456;BME280;55437;55.046;38.838;2023-02-15T01:08:10;100058.91;;;0.36;65.78
68456;BME280;55437;55.046;38.838;2023-02-15T01:10:37;100066.59;;;0.44;65.38
68456;BME280;55437;55.046;38.838;2023-02-15T01:13:03;100065.84;;;0.51;65.24
68456;BME280;55437;55.046;38.838;2023-02-15T01:15:28;100066.84;;;0.64;65.15
68456;BME280;55437;55.046;38.838;2023-02-15T01:17:55;100076.16;;;0.68;64.73
68456;BME280;55437;55.046;38.838;2023-02-15T01:20:26;100067.50;;;0.49;65.28
68456;BME280;55437;55.046;38.838;2023-02-15T01:22:54;100072.69;;;0.60;65.29
68456;BME280;55437;55.046;38.838;2023-02-15T01:25:22;100075.31;;;0.67;65.27
68456;BME280;55437;55.046;38.838;2023-02-15T01:27:48;100070.25;;;0.67;65.51
68456;BME280;55437;55.046;38.838;2023-02-15T01:30:15;100072.03;;;0.76;65.37
68456;BME280;55437;55.046;38.838;2023-02-15T01:32:41;100072.00;;;0.71;65.43
68456;BME280;55437;55.046;38.838;2023-02-15T01:35:08;100077.88;;;0.70;65.73
68456;BME280;55437;55.046;38.838;2023-02-15T01:37:34;100074.50;;;0.73;65.85
68456;BME280;55437;55.046;38.838;2023-02-15T01:40:02;100088.97;;;0.83;65.57
68456;BME280;55437;55.046;38.838;2023-02-15T01:42:31;100081.56;;;1.00;65.65
68456;BME280;55437;55.046;38.838;2023-02-15T01:44:58;100089.09;;;0.94;65.35
68456;BME280;55437;55.046;38.838;2023-02-15T01:50:14;100090.75;;;0.92;66.17
68456;BME280;55437;55.046;38.838;2023-02-15T01:52:49;100091.59;;;0.92;66.29
68456;BME280;55437;55.046;38.838;2023-02-15T01:55:17;100093.19;;;0.83;66.68
68456;BME280;55437;55.046;38.838;2023-02-15T01:57:45;100090.50;;;0.69;66.77
68456;BME280;55437;55.046;38.838;2023-02-15T02:00:14;100098.94;;;0.71;66.99
68456;BME280;55437;55.046;38.838;2023-02-15T02:02:49;100100.66;;;0.75;67.02
68456;BME280;55437;55.046;38.838;2023-02-15T02:05:17;100093.09;;;0.77;66.54
68456;BME280;55437;55.046;38.838;2023-02-15T02:07:44;100094.72;;;0.70;67.03
68456;BME280;55437;55.046;38.838;2023-02-15T02:10:14;100096.41;;;0.72;66.61
68456;BME280;55437;55.046;38.838;2023-02-15T02:12:42;100101.38;;;0.65;66.57
68456;BME280;55437;55.046;38.838;2023-02-15T02:15:09;100101.34;;;0.60;66.49
68456;BME280;55437;55.046;38.838;2023-02-15T02:23:39;100114.72;;;0.53;66.82
68456;BME280;55437;55.046;38.838;2023-02-15T02:28:59;100121.63;;;0.66;66.58
68456;BME280;55437;55.046;38.838;2023-02-15T02:34:07;100117.44;;;0.68;65.68
68456;BME280;55437;55.046;38.838;2023-02-15T02:36:45;100126.59;;;0.60;65.69
68456;BME280;55437;55.046;38.838;2023-02-15T02:39:19;100123.97;;;0.53;65.66
68456;BME280;55437;55.046;38.838;2023-02-15T02:41:59;100122.41;;;0.62;65.57
68456;BME280;55437;55.046;38.838;2023-02-15T02:44:35;100131.78;;;0.71;65.14
68456;BME280;55437;55.046;38.838;2023-02-15T02:47:13;100136.78;;;0.66;64.98
68456;BME280;55437;55.046;38.838;2023-02-15T02:49:43;100131.69;;;0.65;64.89
68456;BME280;55437;55.046;38.838;2023-02-15T02:52:44;100127.38;;;0.56;64.85
68456;BME280;55437;55.046;38.838;2023-02-15T02:57:52;100129.13;;;0.60;64.56
68456;BME280;55437;55.046;38.838;2023-02-15T03:00:21;100132.34;;;0.50;64.58
68456;BME280;55437;55.046;38.838;2023-02-15T03:02:54;100128.22;;;0.55;64.70
68456;BME280;55437;55.046;38.838;2023-02-15T03:05:26;100123.28;;;0.64;64.51
68456;BME280;55437;55.046;38.838;2023-02-15T03:07:55;100124.16;;;0.68;64.07
68456;BME280;55437;55.046;38.838;2023-02-15T03:10:23;100128.38;;;0.69;64.15
68456;BME280;55437;55.046;38.838;2023-02-15T03:12:51;100132.66;;;0.75;64.01
68456;BME280;55437;55.046;38.838;2023-02-15T03:15:33;100136.72;;;0.62;64.10
68456;BME280;55437;55.046;38.838;2023-02-15T03:18:23;100130.78;;;0.58;64.15
68456;BME280;55437;55.046;38.838;2023-02-15T03:20:52;100137.34;;;0.46;64.24
68456;BME280;55437;55.046;38.838;2023-02-15T03:23:22;100140.81;;;0.54;63.99
68456;BME280;55437;55.046;38.838;2023-02-15T03:25:52;100135.88;;;0.60;63.96
68456;BME280;55437;55.046;38.838;2023-02-15T03:28:38;100135.69;;;0.49;63.97
68456;BME280;55437;55.046;38.838;2023-02-15T03:31:09;100151.03;;;0.60;63.74
68456;BME280;55437;55.046;38.838;2023-02-15T03:33:42;100136.72;;;0.60;63.72
68456;BME280;55437;55.046;38.838;2023-02-15T03:36:26;100146.13;;;0.72;63.71
68456;BME280;55437;55.046;38.838;2023-02-15T03:39:20;100148.53;;;0.64;63.48
68456;BME280;55437;55.046;38.838;2023-02-15T03:44:54;100139.22;;;0.59;63.56
68456;BME280;55437;55.046;38.838;2023-02-15T03:47:32;100150.06;;;0.53;63.66
68456;BME280;55437;55.046;38.838;2023-02-15T03:50:09;100156.06;;;0.60;63.55
68456;BME280;55437;55.046;38.838;2023-02-15T03:52:55;100157.63;;;0.52;63.59
68456;BME280;55437;55.046;38.838;2023-02-15T03:55:22;100153.34;;;0.45;63.50
68456;BME280;55437;55.046;38.838;2023-02-15T03:57:51;100158.38;;;0.43;63.38
68456;BME280;55437;55.046;38.838;2023-02-15T04:00:42;100160.00;;;0.41;63.68
68456;BME280;55437;55.046;38.838;2023-02-15T04:03:39;100160.78;;;0.35;63.54
68456;BME280;55437;55.046;38.838;2023-02-15T04:06:06;100162.63;;;0.46;63.66
68456;BME280;55437;55.046;38.838;2023-02-15T04:08:32;100160.94;;;0.46;63.40
68456;BME280;55437;55.046;38.838;2023-02-15T04:11:16;100162.47;;;0.38;63.64
68456;BME280;55437;55.046;38.838;2023-02-15T04:13:42;100163.50;;;0.48;63.63
68456;BME280;55437;55.046;38.838;2023-02-15T04:16:09;100166.13;;;0.57;63.66
68456;BME280;55437;55.046;38.838;2023-02-15T04:18:40;100163.66;;;0.61;63.43
68456;BME280;55437;55.046;38.838;2023-02-15T04:21:26;100167.94;;;0.67;63.31
68456;BME280;55437;55.046;38.838;2023-02-15T04:24:11;100164.63;;;0.72;62.94
68456;BME280;55437;55.046;38.838;2023-02-15T04:26:57;100170.56;;;0.75;63.04
68456;BME280;55437;55.046;38.838;2023-02-15T04:29:25;100171.31;;;0.67;63.09
68456;BME280;55437;55.046;38.838;2023-02-15T04:31:53;100169.69;;;0.71;62.91
68456;BME280;55437;55.046;38.838;2023-02-15T04:34:19;100176.53;;;0.80;62.63
68456;BME280;55437;55.046;38.838;2023-02-15T04:36:44;100180.66;;;0.73;62.68
68456;BME280;55437;55.046;38.838;2023-02-15T04:39:13;100170.44;;;0.65;62.57
68456;BME280;55437;55.046;38.838;2023-02-15T04:41:40;100176.25;;;0.57;62.81
68456;BME280;55437;55.046;38.838;2023-02-15T04:44:06;100171.13;;;0.54;62.50
68456;BME280;55437;55.046;38.838;2023-02-15T04:46:33;100177.06;;;0.56;62.62
68456;BME280;55437;55.046;38.838;2023-02-15T04:48:58;100176.22;;;0.55;62.23
68456;BME280;55437;55.046;38.838;2023-02-15T04:51:25;100180.38;;;0.53;62.25
68456;BME280;55437;55.046;38.838;2023-02-15T04:53:51;100180.31;;;0.47;61.73
68456;BME280;55437;55.046;38.838;2023-02-15T04:56:20;100172.69;;;0.44;61.81
68456;BME280;55437;55.046;38.838;2023-02-15T04:58:46;100178.56;;;0.43;61.82
68456;BME280;55437;55.046;38.838;2023-02-15T05:01:12;100181.91;;;0.42;61.36
68456;BME280;55437;55.046;38.838;2023-02-15T05:03:38;100192.06;;;0.45;61.60
68456;BME280;55437;55.046;38.838;2023-02-15T05:06:04;100183.75;;;0.52;61.44
68456;BME280;55437;55.046;38.838;2023-02-15T05:08:31;100194.59;;;0.45;61.26
68456;BME280;55437;55.046;38.838;2023-02-15T05:10:58;100182.66;;;0.33;61.63
68456;BME280;55437;55.046;38.838;2023-02-15T05:13:24;100186.91;;;0.39;61.46
68456;BME280;55437;55.046;38.838;2023-02-15T05:15:51;100187.78;;;0.40;60.89
68456;BME280;55437;55.046;38.838;2023-02-15T05:18:19;100202.13;;;0.42;61.43
68456;BME280;55437;55.046;38.838;2023-02-15T05:20:45;100193.84;;;0.52;61.45
68456;BME280;55437;55.046;38.838;2023-02-15T05:23:11;100193.94;;;0.58;60.91
68456;BME280;55437;55.046;38.838;2023-02-15T05:25:37;100198.19;;;0.62;60.41
68456;BME280;55437;55.046;38.838;2023-02-15T05:28:22;100201.63;;;0.66;60.48
68456;BME280;55437;55.046;38.838;2023-02-15T05:31:01;100202.34;;;0.57;60.55
68456;BME280;55437;55.046;38.838;2023-02-15T05:33:27;100194.81;;;0.59;60.36
68456;BME280;55437;55.046;38.838;2023-02-15T05:35:53;100202.31;;;0.54;60.41
68456;BME280;55437;55.046;38.838;2023-02-15T05:38:19;100192.28;;;0.59;60.34
68456;BME280;55437;55.046;38.838;2023-02-15T05:40:44;100202.50;;;0.68;60.12
68456;BME280;55437;55.046;38.838;2023-02-15T05:43:10;100198.94;;;0.55;60.61
68456;BME280;55437;55.046;38.838;2023-02-15T05:45:39;100196.34;;;0.51;60.41
68456;BME280;55437;55.046;38.838;2023-02-15T05:48:05;100202.28;;;0.53;60.33
68456;BME280;55437;55.046;38.838;2023-02-15T05:50:31;100193.94;;;0.58;60.09
68456;BME280;55437;55.046;38.838;2023-02-15T05:52:58;100199.09;;;0.66;59.96
68456;BME280;55437;55.046;38.838;2023-02-15T05:55:24;100201.59;;;0.64;60.04
68456;BME280;55437;55.046;38.838;2023-02-15T05:57:51;100214.97;;;0.57;60.06
68456;BME280;55437;55.046;38.838;2023-02-15T06:00:17;100214.28;;;0.67;60.18
68456;BME280;55437;55.046;38.838;2023-02-15T06:02:43;100215.31;;;0.80;59.79
68456;BME280;55437;55.046;38.838;2023-02-15T06:05:09;100219.38;;;0.70;60.10
68456;BME280;55437;55.046;38.838;2023-02-15T06:07:35;100210.03;;;0.65;59.72
68456;BME280;55437;55.046;38.838;2023-02-15T06:10:01;100223.63;;;0.75;59.89
68456;BME280;55437;55.046;38.838;2023-02-15T06:12:29;100215.28;;;0.79;59.60
68456;BME280;55437;55.046;38.838;2023-02-15T06:14:56;100227.97;;;0.82;59.65
68456;BME280;55437;55.046;38.838;2023-02-15T06:17:22;100221.84;;;0.66;59.67
68456;BME280;55437;55.046;38.838;2023-02-15T06:19:48;100226.94;;;0.69;60.16
68456;BME280;55437;55.046;38.838;2023-02-15T06:22:13;100226.97;;;0.73;59.81
68456;BME280;55437;55.046;38.838;2023-02-15T06:25:04;100224.41;;;0.69;60.03
68456;BME280;55437;55.046;38.838;2023-02-15T06:27:31;100227.06;;;0.78;59.76
68456;BME280;55437;55.046;38.838;2023-02-15T06:29:56;100227.88;;;0.77;59.87
68456;BME280;55437;55.046;38.838;2023-02-15T06:32:22;100224.53;;;0.78;59.75
68456;BME280;55437;55.046;38.838;2023-02-15T06:34:48;100226.16;;;0.75;59.87
68456;BME280;55437;55.046;38.838;2023-02-15T06:37:14;100231.97;;;0.67;60.19
68456;BME280;55437;55.046;38.838;2023-02-15T06:39:40;100231.91;;;0.63;60.51
68456;BME280;55437;55.046;38.838;2023-02-15T06:42:05;100230.38;;;0.74;60.22
68456;BME280;55437;55.046;38.838;2023-02-15T06:44:31;100232.13;;;0.80;59.93
68456;BME280;55437;55.046;38.838;2023-02-15T06:47:15;100235.72;;;0.95;59.70
68456;BME280;55437;55.046;38.838;2023-02-15T06:49:41;100235.66;;;0.91;59.52
68456;BME280;55437;55.046;38.838;2023-02-15T06:52:06;100237.28;;;0.84;59.55
68456;BME280;55437;55.046;38.838;2023-02-15T06:54:34;100237.34;;;0.90;59.70
68456;BME280;55437;55.046;38.838;2023-02-15T06:56:59;100248.97;;;0.79;59.97
68456;BME280;55437;55.046;38.838;2023-02-15T06:59:25;100237.16;;;0.77;60.19
68456;BME280;55437;55.046;38.838;2023-02-15T07:01:51;100244.03;;;0.87;60.35
68456;BME280;55437;55.046;38.838;2023-02-15T07:04:16;100244.94;;;0.92;60.32
68456;BME280;55437;55.046;38.838;2023-02-15T07:06:43;100248.38;;;0.98;60.60
68456;BME280;55437;55.046;38.838;2023-02-15T07:09:09;100245.69;;;0.83;60.86
68456;BME280;55437;55.046;38.838;2023-02-15T07:11:35;100244.13;;;0.93;60.96
68456;BME280;55437;55.046;38.838;2023-02-15T07:14:19;100241.50;;;0.87;60.87
68456;BME280;55437;55.046;38.838;2023-02-15T07:16:45;100241.63;;;0.96;61.10
68456;BME280;55437;55.046;38.838;2023-02-15T07:19:11;100245.84;;;0.98;61.03
68456;BME280;55437;55.046;38.838;2023-02-15T07:21:37;100244.22;;;1.02;61.18
68456;BME280;55437;55.046;38.838;2023-02-15T07:24:03;100245.66;;;0.82;61.92
68456;BME280;55437;55.046;38.838;2023-02-15T07:26:32;100240.59;;;0.82;62.10
68456;BME280;55437;55.046;38.838;2023-02-15T07:28:58;100241.50;;;0.87;62.19
68456;BME280;55437;55.046;38.838;2023-02-15T07:31:24;100241.53;;;0.90;62.47
68456;BME280;55437;55.046;38.838;2023-02-15T07:33:59;100248.19;;;0.85;63.07
68456;BME280;55437;55.046;38.838;2023-02-15T07:36:59;100241.69;;;1.02;62.81
68456;BME280;55437;55.046;38.838;2023-02-15T07:39:25;100242.75;;;1.18;62.63
68456;BME280;55437;55.046;38.838;2023-02-15T07:41:50;100237.84;;;1.33;62.24
68456;BME280;55437;55.046;38.838;2023-02-15T07:44:17;100243.84;;;1.39;61.97
68456;BME280;55437;55.046;38.838;2023-02-15T07:47:09;100240.34;;;1.28;61.93
68456;BME280;55437;55.046;38.838;2023-02-15T07:49:34;100241.16;;;1.26;62.07
68456;BME280;55437;55.046;38.838;2023-02-15T07:52:00;100249.63;;;1.29;62.15
68456;BME280;55437;55.046;38.838;2023-02-15T07:54:27;100242.16;;;1.38;61.73
68456;BME280;55437;55.046;38.838;2023-02-15T07:56:53;100246.59;;;1.59;61.39
68456;BME280;55437;55.046;38.838;2023-02-15T07:59:18;100252.53;;;1.63;60.97
68456;BME280;55437;55.046;38.838;2023-02-15T08:01:44;100254.88;;;1.46;61.43
68456;BME280;55437;55.046;38.838;2023-02-15T08:04:10;100255.84;;;1.54;61.19
68456;BME280;55437;55.046;38.838;2023-02-15T08:06:45;100260.84;;;1.50;61.28
68456;BME280;55437;55.046;38.838;2023-02-15T08:09:11;100259.94;;;1.46;61.53
68456;BME280;55437;55.046;38.838;2023-02-15T08:11:37;100259.22;;;1.55;61.33
68456;BME280;55437;55.046;38.838;2023-02-15T08:16:53;100271.13;;;1.65;60.79
68456;BME280;55437;55.046;38.838;2023-02-15T08:19:27;100275.38;;;1.67;60.74
68456;BME280;55437;55.046;38.838;2023-02-15T08:21:56;100266.75;;;1.52;60.81
68456;BME280;55437;55.046;38.838;2023-02-15T08:24:28;100271.75;;;1.44;60.97
68456;BME280;55437;55.046;38.838;2023-02-15T08:26:54;100284.53;;;1.58;60.64
68456;BME280;55437;55.046;38.838;2023-02-15T08:29:23;100277.75;;;1.54;60.57
68456;BME280;55437;55.046;38.838;2023-02-15T08:31:52;100282.00;;;1.55;60.54
68456;BME280;55437;55.046;38.838;2023-02-15T08:34:19;100281.94;;;1.50;60.32
68456;BME280;55437;55.046;38.838;2023-02-15T08:36:45;100277.81;;;1.57;60.19
68456;BME280;55437;55.046;38.838;2023-02-15T08:39:12;100284.19;;;1.29;60.37
68456;BME280;55437;55.046;38.838;2023-02-15T08:41:40;100281.72;;;1.32;60.04
68456;BME280;55437;55.046;38.838;2023-02-15T08:44:08;100277.78;;;1.55;59.60
68456;BME280;55437;55.046;38.838;2023-02-15T08:46:37;100280.31;;;1.55;59.17
68456;BME280;55437;55.046;38.838;2023-02-15T08:49:04;100284.47;;;1.52;58.99
68456;BME280;55437;55.046;38.838;2023-02-15T08:51:36;100286.38;;;1.72;58.78
68456;BME280;55437;55.046;38.838;2023-02-15T08:54:07;100291.78;;;2.03;57.95
68456;BME280;55437;55.046;38.838;2023-02-15T08:56:36;100289.25;;;2.03;57.88
68456;BME280;55437;55.046;38.838;2023-02-15T08:59:04;100288.19;;;1.81;57.63
68456;BME280;55437;55.046;38.838;2023-02-15T09:01:32;100293.47;;;2.02;57.51
68456;BME280;55437;55.046;38.838;2023-02-15T09:04:05;100296.25;;;2.33;56.95
68456;BME280;55437;55.046;38.838;2023-02-15T09:06:38;100301.53;;;2.56;56.42
68456;BME280;55437;55.046;38.838;2023-02-15T09:09:04;100293.16;;;2.69;56.07
68456;BME280;55437;55.046;38.838;2023-02-15T09:11:34;100299.78;;;2.47;56.02
68456;BME280;55437;55.046;38.838;2023-02-15T09:14:06;100308.25;;;2.49;55.73
68456;BME280;55437;55.046;38.838;2023-02-15T09:16:40;100304.88;;;2.50;55.66
68456;BME280;55437;55.046;38.838;2023-02-15T09:19:10;100307.22;;;2.32;55.74
68456;BME280;55437;55.046;38.838;2023-02-15T09:21:37;100298.66;;;2.16;56.24
68456;BME280;55437;55.046;38.838;2023-02-15T09:24:05;100306.84;;;1.89;56.54
68456;BME280;55437;55.046;38.838;2023-02-15T09:26:33;100308.38;;;1.75;56.66
68456;BME280;55437;55.046;38.838;2023-02-15T09:29:00;100311.66;;;1.68;56.69
68456;BME280;55437;55.046;38.838;2023-02-15T09:31:28;100315.59;;;1.43;57.23
68456;BME280;55437;55.046;38.838;2023-02-15T09:33:55;100313.00;;;1.38;57.28
68456;BME280;55437;55.046;38.838;2023-02-15T09:36:36;100318.84;;;1.36;57.00
68456;BME280;55437;55.046;38.838;2023-02-15T09:39:25;100328.78;;;1.21;57.13
68456;BME280;55437;55.046;38.838;2023-02-15T09:50:03;100342.94;;;1.09;57.16
68456;BME280;55437;55.046;38.838;2023-02-15T09:55:51;100334.41;;;1.01;57.46
68456;BME280;55437;55.046;38.838;2023-02-15T10:03:12;100329.81;;;1.36;56.68
68456;BME280;55437;55.046;38.838;2023-02-15T10:11:24;100327.56;;;1.56;55.32
68456;BME280;55437;55.046;38.838;2023-02-15T10:14:18;100333.34;;;1.48;55.42
68456;BME280;55437;55.046;38.838;2023-02-15T10:17:01;100345.75;;;1.28;56.09
68456;BME280;55437;55.046;38.838;2023-02-15T10:27:55;100346.28;;;1.07;55.82
68456;BME280;55437;55.046;38.838;2023-02-15T10:38:42;100349.91;;;1.26;55.90
68456;BME280;55437;55.046;38.838;2023-02-15T10:41:38;100345.81;;;1.34;55.85
68456;BME280;55437;55.046;38.838;2023-02-15T10:50:13;100361.41;;;1.04;56.20
68456;BME280;55437;55.046;38.838;2023-02-15T10:52:51;100358.69;;;0.90;56.24
68456;BME280;55437;55.046;38.838;2023-02-15T11:01:12;100377.09;;;0.85;56.30
68456;BME280;55437;55.046;38.838;2023-02-15T11:06:36;100379.03;;;0.99;55.90
68456;BME280;55437;55.046;38.838;2023-02-15T11:09:12;100385.69;;;0.93;56.18
68456;BME280;55437;55.046;38.838;2023-02-15T11:11:42;100376.28;;;0.84;56.39
68456;BME280;55437;55.046;38.838;2023-02-15T11:14:36;100383.94;;;0.89;56.75
68456;BME280;55437;55.046;38.838;2023-02-15T11:17:11;100383.81;;;0.81;56.68
68456;BME280;55437;55.046;38.838;2023-02-15T11:19:43;100389.75;;;0.83;56.85
68456;BME280;55437;55.046;38.838;2023-02-15T11:22:11;100394.00;;;0.84;56.95
68456;BME280;55437;55.046;38.838;2023-02-15T11:24:43;100388.78;;;0.77;57.05
68456;BME280;55437;55.046;38.838;2023-02-15T11:27:31;100399.44;;;0.59;57.37
68456;BME280;55437;55.046;38.838;2023-02-15T11:30:10;100396.97;;;0.63;57.17
68456;BME280;55437;55.046;38.838;2023-02-15T11:32:50;100406.34;;;0.67;57.43
68456;BME280;55437;55.046;38.838;2023-02-15T11:35:26;100407.41;;;0.82;56.80
68456;BME280;55437;55.046;38.838;2023-02-15T11:37:54;100411.66;;;0.83;56.61
68456;BME280;55437;55.046;38.838;2023-02-15T11:40:45;100412.50;;;0.83;56.53
68456;BME280;55437;55.046;38.838;2023-02-15T11:43:43;100416.69;;;0.81;56.39
68456;BME280;55437;55.046;38.838;2023-02-15T11:46:10;100428.75;;;0.99;56.14
68456;BME280;55437;55.046;38.838;2023-02-15T11:48:37;100416.88;;;0.93;56.53
68456;BME280;55437;55.046;38.838;2023-02-15T11:51:04;100425.25;;;0.91;56.19
68456;BME280;55437;55.046;38.838;2023-02-15T11:53:36;100428.75;;;0.99;56.01
68456;BME280;55437;55.046;38.838;2023-02-15T11:56:03;100427.84;;;0.94;55.71
68456;BME280;55437;55.046;38.838;2023-02-15T11:58:58;100424.28;;;0.83;55.61
68456;BME280;55437;55.046;38.838;2023-02-15T12:03:52;100438.88;;;0.99;55.53
68456;BME280;55437;55.046;38.838;2023-02-15T12:06:51;100441.09;;;0.81;55.49
68456;BME280;55437;55.046;38.838;2023-02-15T12:09:42;100439.47;;;0.84;55.64
68456;BME280;55437;55.046;38.838;2023-02-15T12:12:32;100439.72;;;0.99;55.28
68456;BME280;55437;55.046;38.838;2023-02-15T12:15:00;100453.34;;;1.09;55.46
68456;BME280;55437;55.046;38.838;2023-02-15T12:20:03;100445.69;;;1.03;55.81
68456;BME280;55437;55.046;38.838;2023-02-15T12:22:32;100453.88;;;0.90;56.06
68456;BME280;55437;55.046;38.838;2023-02-15T12:25:00;100458.84;;;0.85;56.30
68456;BME280;55437;55.046;38.838;2023-02-15T12:27:34;100461.13;;;0.70;56.59
68456;BME280;55437;55.046;38.838;2023-02-15T12:30:21;100463.25;;;0.49;57.14
68456;BME280;55437;55.046;38.838;2023-02-15T12:33:02;100470.00;;;0.48;57.10
68456;BME280;55437;55.046;38.838;2023-02-15T12:35:35;100478.31;;;0.43;57.66
68456;BME280;55437;55.046;38.838;2023-02-15T12:40:38;100478.25;;;0.40;57.55
68456;BME280;55437;55.046;38.838;2023-02-15T12:43:25;100483.25;;;0.38;57.91
68456;BME280;55437;55.046;38.838;2023-02-15T12:45:51;100486.81;;;0.46;57.58
68456;BME280;55437;55.046;38.838;2023-02-15T12:48:19;100483.50;;;0.50;57.54
68456;BME280;55437;55.046;38.838;2023-02-15T12:50:48;100485.25;;;0.54;57.22
68456;BME280;55437;55.046;38.838;2023-02-15T12:53:34;100495.41;;;0.56;57.53
68456;BME280;55437;55.046;38.838;2023-02-15T12:56:05;100491.28;;;0.61;57.38
68456;BME280;55437;55.046;38.838;2023-02-15T12:58:44;100492.00;;;0.54;57.71
68456;BME280;55437;55.046;38.838;2023-02-15T13:01:18;100494.47;;;0.52;57.69
68456;BME280;55437;55.046;38.838;2023-02-15T13:06:26;100506.03;;;0.40;58.01
68456;BME280;55437;55.046;38.838;2023-02-15T13:08:58;;;;0.39;
68456;BME280;55437;55.046;38.838;2023-02-15T13:11:49;100512.81;;;0.42;57.78
68456;BME280;55437;55.046;38.838;2023-02-15T13:14:28;100507.72;;;0.41;57.87
68456;BME280;55437;55.046;38.838;2023-02-15T13:16:58;100512.00;;;0.43;57.50
68456;BME280;55437;55.046;38.838;2023-02-15T13:21:57;100528.44;;;0.23;57.85
68456;BME280;55437;55.046;38.838;2023-02-15T13:24:37;100520.88;;;0.23;57.78
68456;BME280;55437;55.046;38.838;2023-02-15T13:27:04;100518.38;;;0.26;57.81
68456;BME280;55437;55.046;38.838;2023-02-15T13:29:36;100527.88;;;0.38;57.40
68456;BME280;55437;55.046;38.838;2023-02-15T13:32:31;100526.97;;;0.34;57.42
68456;BME280;55437;55.046;38.838;2023-02-15T13:35:00;100532.22;;;0.43;57.39
68456;BME280;55437;55.046;38.838;2023-02-15T13:40:25;100546.94;;;0.22;57.68
68456;BME280;55437;55.046;38.838;2023-02-15T13:46:23;100544.56;;;0.29;57.60
68456;BME280;55437;55.046;38.838;2023-02-15T13:48:41;100556.41;;;0.32;57.30
68456;BME280;55437;55.046;38.838;2023-02-15T14:00:15;100560.06;;;0.07;57.76
68456;BME280;55437;55.046;38.838;2023-02-15T14:03:12;100559.91;;;-0.01;58.08
68456;BME280;55437;55.046;38.838;2023-02-15T14:11:52;100571.06;;;0.09;58.19
68456;BME280;55437;55.046;38.838;2023-02-15T14:17:59;100576.19;;;0.14;57.64
68456;BME280;55437;55.046;38.838;2023-02-15T14:23:41;100578.97;;;-0.13;57.85
68456;BME280;55437;55.046;38.838;2023-02-15T14:26:23;100578.09;;;-0.15;58.25
68456;BME280;55437;55.046;38.838;2023-02-15T14:29:24;100590.59;;;-0.20;58.34
68456;BME280;55437;55.046;38.838;2023-02-15T14:31:57;100592.22;;;-0.22;58.42
68456;BME280;55437;55.046;38.838;2023-02-15T14:34:25;100592.75;;;-0.35;58.77
68456;BME280;55437;55.046;38.838;2023-02-15T14:36:57;100595.38;;;-0.30;59.03
68456;BME280;55437;55.046;38.838;2023-02-15T14:39:48;100604.91;;;-0.19;58.26
68456;BME280;55437;55.046;38.838;2023-02-15T14:43:00;100607.88;;;-0.01;58.10
68456;BME280;55437;55.046;38.838;2023-02-15T14:48:25;100602.47;;;-0.16;58.13
68456;BME280;55437;55.046;38.838;2023-02-15T14:50:55;100606.06;;;-0.06;57.92
68456;BME280;55437;55.046;38.838;2023-02-15T14:53:33;100616.13;;;-0.08;58.10
68456;BME280;55437;55.046;38.838;2023-02-15T15:01:35;100615.00;;;-0.19;57.96
68456;BME280;55437;55.046;38.838;2023-02-15T15:04:08;100621.50;;;-0.28;58.39
68456;BME280;55437;55.046;38.838;2023-02-15T15:07:19;100623.13;;;-0.30;58.44
68456;BME280;55437;55.046;38.838;2023-02-15T15:16:01;100628.59;;;-0.14;57.96
68456;BME280;55437;55.046;38.838;2023-02-15T15:18:45;100631.13;;;-0.14;57.98
68456;BME280;55437;55.046;38.838;2023-02-15T15:36:13;100650.75;;;-0.02;57.92
68456;BME280;55437;55.046;38.838;2023-02-15T15:41:41;100654.19;;;0.02;58.02
68456;BME280;55437;55.046;38.838;2023-02-15T15:49:38;100656.41;;;-0.12;58.46
68456;BME280;55437;55.046;38.838;2023-02-15T15:52:22;100666.22;;;-0.23;58.67